sensor_id;sensor_type;location;lat;lon;timestamp;pressure;altitude;pressure_sealevel;temperature;humidity
69667;BME280;66534;52.370;4.832;2023-04-01T00:00:05;99011.28;;;8.89;100.00
69667;BME280;66534;52.370;4.832;2023-04-01T00:00:36;99003.06;;;8.95;100.00
69667;BME280;66534;52.370;4.832;2023-04-01T00:01:07;99006.50;;;8.95;100.00
69667;BME280;66534;52.370;4.832;2023-04-01T00:01:37;99009.94;;;8.96;100.00
69667;BME280;66534;52.370;4.832;2023-04-01T00:02:08;99004.59;;;8.97;100.00
69667;BME280;66534;52.370;4.832;2023-04-01T00:02:38;99012.13;;;8.89;100.00
69667;BME280;66534;52.370;4.832;2023-04-01T00:03:08;99009.19;;;8.81;100.00
69667;BME280;66534;52.370;4.832;2023-04-01T00:03:39;99009.09;;;8.83;100.00
69667;BME280;66534;52.370;4.832;2023-04-01T00:04:09;99010.00;;;8.82;100.00
69667;BME280;66534;52.370;4.832;2023-04-01T00:04:40;99012.63;;;8.82;100.00
69667;BME280;66534;52.370;4.832;2023-04-01T00:05:11;99004.91;;;8.80;100.00
69667;BME280;66534;52.370;4.832;2023-04-01T00:05:41;99010.44;;;8.88;100.00
69667;BME280;66534;52.370;4.832;2023-04-01T00:06:12;99006.25;;;8.86;100.00
69667;BME280;66534;52.370;4.832;2023-04-01T00:06:44;99007.31;;;8.83;100.00
69667;BME280;66534;52.370;4.832;2023-04-01T00:07:15;99004.69;;;8.70;100.00
69667;BME280;66534;52.370;4.832;2023-04-01T00:07:45;99012.59;;;8.69;100.00
69667;BME280;66534;52.370;4.832;2023-04-01T00:08:16;99005.81;;;8.66;100.00
69667;BME280;66534;52.370;4.832;2023-04-01T00:08:47;99005.50;;;8.71;100.00
69667;BME280;66534;52.370;4.832;2023-04-01T00:09:17;99009.78;;;8.72;100.00
69667;BME280;66534;52.370;4.832;2023-04-01T00:09:48;99008.53;;;8.78;100.00
69667;BME280;66534;52.370;4.832;2023-04-01T00:10:18;99007.81;;;8.76;100.00
69667;BME280;66534;52.370;4.832;2023-04-01T00:10:50;99009.78;;;8.72;100.00
69667;BME280;66534;52.370;4.832;2023-04-01T00:11:21;99014.19;;;8.71;100.00
69667;BME280;66534;52.370;4.832;2023-04-01T00:11:52;99007.41;;;8.82;100.00
69667;BME280;66534;52.370;4.832;2023-04-01T00:12:22;99011.06;;;8.79;100.00
69667;BME280;66534;52.370;4.832;2023-04-01T00:12:55;99018.81;;;8.81;100.00
69667;BME280;66534;52.370;4.832;2023-04-01T00:13:25;99009.28;;;8.80;100.00
69667;BME280;66534;52.370;4.832;2023-04-01T00:13:56;99015.03;;;8.85;100.00
69667;BME280;66534;52.370;4.832;2023-04-01T00:14:26;99006.06;;;8.89;100.00
69667;BME280;66534;52.370;4.832;2023-04-01T00:14:57;99008.97;;;8.84;100.00
69667;BME280;66534;52.370;4.832;2023-04-01T00:15:27;99022.66;;;8.75;100.00
69667;BME280;66534;52.370;4.832;2023-04-01T00:15:58;99018.88;;;8.66;100.00
69667;BME280;66534;52.370;4.832;2023-04-01T00:16:28;99010.22;;;8.66;100.00
69667;BME280;66534;52.370;4.832;2023-04-01T00:16:59;99013.47;;;8.69;100.00
69667;BME280;66534;52.370;4.832;2023-04-01T00:17:29;99014.19;;;8.71;100.00
69667;BME280;66534;52.370;4.832;2023-04-01T00:18:00;99015.31;;;8.67;100.00
69667;BME280;66534;52.370;4.832;2023-04-01T00:18:30;99017.41;;;8.62;100.00
69667;BME280;66534;52.370;4.832;2023-04-01T00:19:01;99018.56;;;8.58;100.00
69667;BME280;66534;52.370;4.832;2023-04-01T00:19:32;99020.97;;;8.61;100.00
69667;BME280;66534;52.370;4.832;2023-04-01T00:20:04;99014.88;;;8.61;100.00
69667;BME280;66534;52.370;4.832;2023-04-01T00:20:37;99017.00;;;8.68;100.00
69667;BME280;66534;52.370;4.832;2023-04-01T00:21:08;99015.03;;;8.72;100.00
69667;BME280;66534;52.370;4.832;2023-04-01T00:21:38;99024.44;;;8.75;100.00
69667;BME280;66534;52.370;4.832;2023-04-01T00:22:09;99020.78;;;8.77;100.00
69667;BME280;66534;52.370;4.832;2023-04-01T00:22:41;99015.66;;;8.76;100.00
69667;BME280;66534;52.370;4.832;2023-04-01T00:23:12;99015.97;;;8.71;100.00
69667;BME280;66534;52.370;4.832;2023-04-01T00:23:43;99015.22;;;8.69;100.00
69667;BME280;66534;52.370;4.832;2023-04-01T00:24:13;99025.38;;;8.73;100.00
69667;BME280;66534;52.370;4.832;2023-04-01T00:24:44;99019.72;;;8.67;100.00
69667;BME280;66534;52.370;4.832;2023-04-01T00:25:14;99020.66;;;8.66;100.00
69667;BME280;66534;52.370;4.832;2023-04-01T00:25:45;99023.59;;;8.61;100.00
69667;BME280;66534;52.370;4.832;2023-04-01T00:26:18;99020.03;;;8.62;100.00
69667;BME280;66534;52.370;4.832;2023-04-01T00:26:50;99020.09;;;8.61;100.00
69667;BME280;66534;52.370;4.832;2023-04-01T00:27:21;99018.75;;;8.55;100.00
69667;BME280;66534;52.370;4.832;2023-04-01T00:27:51;99018.03;;;8.53;100.00
69667;BME280;66534;52.370;4.832;2023-04-01T00:28:22;99020.31;;;8.58;100.00
69667;BME280;66534;52.370;4.832;2023-04-01T00:28:52;99017.22;;;8.65;100.00
69667;BME280;66534;52.370;4.832;2023-04-01T00:29:23;99019.59;;;8.68;100.00
69667;BME280;66534;52.370;4.832;2023-04-01T00:29:54;99020.56;;;8.67;100.00
69667;BME280;66534;52.370;4.832;2023-04-01T00:30:25;99020.66;;;8.66;100.00
69667;BME280;66534;52.370;4.832;2023-04-01T00:30:55;99019.75;;;8.53;100.00
69667;BME280;66534;52.370;4.832;2023-04-01T00:31:26;99020.94;;;8.48;100.00
69667;BME280;66534;52.370;4.832;2023-04-01T00:31:56;99021.47;;;8.54;100.00
69667;BME280;66534;52.370;4.832;2023-04-01T00:32:27;99020.31;;;8.58;100.00
69667;BME280;66534;52.370;4.832;2023-04-01T00:32:58;99020.03;;;8.62;100.00
69667;BME280;66534;52.370;4.832;2023-04-01T00:33:28;99017.78;;;8.56;100.00
69667;BME280;66534;52.370;4.832;2023-04-01T00:33:58;99020.97;;;8.61;100.00
69667;BME280;66534;52.370;4.832;2023-04-01T00:34:29;99028.19;;;8.70;100.00
69667;BME280;66534;52.370;4.832;2023-04-01T00:34:59;99023.69;;;8.72;100.00
69667;BME280;66534;52.370;4.832;2023-04-01T00:35:30;99024.34;;;8.76;100.00
69667;BME280;66534;52.370;4.832;2023-04-01T00:36:13;99029.97;;;8.70;100.00
69667;BME280;66534;52.370;4.832;2023-04-01T00:36:49;99022.97;;;8.70;100.00
69667;BME280;66534;52.370;4.832;2023-04-01T00:37:20;99023.16;;;8.67;100.00
69667;BME280;66534;52.370;4.832;2023-04-01T00:37:51;99022.88;;;8.72;100.00
69667;BME280;66534;52.370;4.832;2023-04-01T00:38:21;99026.44;;;8.71;100.00
69667;BME280;66534;52.370;4.832;2023-04-01T00:38:51;99021.56;;;8.65;100.00
69667;BME280;66534;52.370;4.832;2023-04-01T00:39:22;99027.94;;;8.61;100.00
69667;BME280;66534;52.370;4.832;2023-04-01T00:39:52;99021.00;;;8.74;100.00
69667;BME280;66534;52.370;4.832;2023-04-01T00:40:27;99021.84;;;8.87;100.00
69667;BME280;66534;52.370;4.832;2023-04-01T00:41:02;99022.19;;;8.95;100.00
69667;BME280;66534;52.370;4.832;2023-04-01T00:41:33;99018.28;;;8.88;100.00
69667;BME280;66534;52.370;4.832;2023-04-01T00:42:03;99027.41;;;8.83;100.00
69667;BME280;66534;52.370;4.832;2023-04-01T00:42:34;99025.53;;;8.97;100.00
69667;BME280;66534;52.370;4.832;2023-04-01T00:43:09;99023.84;;;8.96;100.00
69667;BME280;66534;52.370;4.832;2023-04-01T00:43:43;99030.31;;;8.78;100.00
69667;BME280;66534;52.370;4.832;2023-04-01T00:44:18;98973.91;;;8.48;100.00
69667;BME280;66534;52.370;4.832;2023-04-01T00:44:52;99026.91;;;8.90;100.00
69667;BME280;66534;52.370;4.832;2023-04-01T00:45:25;99028.97;;;8.98;100.00
69667;BME280;66534;52.370;4.832;2023-04-01T00:46:08;99027.31;;;8.97;100.00
69667;BME280;66534;52.370;4.832;2023-04-01T00:46:38;99018.94;;;8.92;100.00
69667;BME280;66534;52.370;4.832;2023-04-01T00:47:08;99028.63;;;8.77;100.00
69667;BME280;66534;52.370;4.832;2023-04-01T00:47:39;99031.03;;;8.80;100.00
69667;BME280;66534;52.370;4.832;2023-04-01T00:48:47;99028.66;;;8.90;100.00
69667;BME280;66534;52.370;4.832;2023-04-01T00:49:25;99027.81;;;9.02;100.00
69667;BME280;66534;52.370;4.832;2023-04-01T00:49:59;99023.34;;;9.04;100.00
69667;BME280;66534;52.370;4.832;2023-04-01T00:50:30;99024.38;;;9.02;100.00
69667;BME280;66534;52.370;4.832;2023-04-01T00:51:03;99028.47;;;9.18;100.00
69667;BME280;66534;52.370;4.832;2023-04-01T00:51:36;99032.03;;;9.17;100.00
69667;BME280;66534;52.370;4.832;2023-04-01T00:52:10;99031.28;;;9.03;100.00
69667;BME280;66534;52.370;4.832;2023-04-01T00:52:44;99027.63;;;8.92;100.00
69667;BME280;66534;52.370;4.832;2023-04-01T00:53:14;99033.06;;;9.02;100.00
69667;BME280;66534;52.370;4.832;2023-04-01T00:53:50;99034.00;;;9.01;100.00
69667;BME280;66534;52.370;4.832;2023-04-01T00:54:23;99029.19;;;8.95;100.00
69667;BME280;66534;52.370;4.832;2023-04-01T00:54:56;99037.44;;;8.89;100.00
69667;BME280;66534;52.370;4.832;2023-04-01T00:55:32;99033.53;;;8.82;100.00
69667;BME280;66534;52.370;4.832;2023-04-01T00:56:07;99024.97;;;8.80;100.00
69667;BME280;66534;52.370;4.832;2023-04-01T00:56:46;99030.94;;;8.94;100.00
69667;BME280;66534;52.370;4.832;2023-04-01T00:57:25;99029.72;;;8.87;100.00
69667;BME280;66534;52.370;4.832;2023-04-01T00:58:03;99031.09;;;9.06;100.00
69667;BME280;66534;52.370;4.832;2023-04-01T00:58:38;99034.94;;;9.00;100.00
69667;BME280;66534;52.370;4.832;2023-04-01T00:59:14;99029.28;;;9.06;100.00
69667;BME280;66534;52.370;4.832;2023-04-01T00:59:51;99032.97;;;9.04;100.00
69667;BME280;66534;52.370;4.832;2023-04-01T01:00:24;99033.81;;;9.04;100.00
69667;BME280;66534;52.370;4.832;2023-04-01T01:00:56;99031.59;;;8.98;100.00
69667;BME280;66534;52.370;4.832;2023-04-01T01:01:30;99030.38;;;9.04;100.00
69667;BME280;66534;52.370;4.832;2023-04-01T01:02:01;99035.28;;;9.08;100.00
69667;BME280;66534;52.370;4.832;2023-04-01T01:02:34;99031.91;;;9.06;100.00
69667;BME280;66534;52.370;4.832;2023-04-01T01:03:04;99035.97;;;8.97;100.00
69667;BME280;66534;52.370;4.832;2023-04-01T01:03:35;99039.75;;;8.93;100.00
69667;BME280;66534;52.370;4.832;2023-04-01T01:04:06;99034.66;;;9.05;100.00
69667;BME280;66534;52.370;4.832;2023-04-01T01:04:37;99042.81;;;9.13;100.00
69667;BME280;66534;52.370;4.832;2023-04-01T01:05:08;99038.44;;;9.26;100.00
69667;BME280;66534;52.370;4.832;2023-04-01T01:05:49;99039.91;;;9.30;100.00
69667;BME280;66534;52.370;4.832;2023-04-01T01:07:32;99036.13;;;9.21;100.00
69667;BME280;66534;52.370;4.832;2023-04-01T01:08:27;99036.44;;;9.17;100.00
69667;BME280;66534;52.370;4.832;2023-04-01T01:09:32;99034.78;;;9.16;100.00
69667;BME280;66534;52.370;4.832;2023-04-01T01:10:49;99043.47;;;9.29;100.00
69667;BME280;66534;52.370;4.832;2023-04-01T01:11:22;99034.34;;;9.35;100.00
69667;BME280;66534;52.370;4.832;2023-04-01T01:13:10;99045.31;;;9.27;100.00
69667;BME280;66534;52.370;4.832;2023-04-01T01:13:58;99032.34;;;9.51;100.00
69667;BME280;66534;52.370;4.832;2023-04-01T01:14:50;99039.91;;;9.43;100.00
69667;BME280;66534;52.370;4.832;2023-04-01T01:16:44;99045.97;;;9.43;100.00
69667;BME280;66534;52.370;4.832;2023-04-01T01:17:47;99039.38;;;9.25;100.00
69667;BME280;66534;52.370;4.832;2023-04-01T01:18:24;99034.03;;;9.52;100.00
69667;BME280;66534;52.370;4.832;2023-04-01T01:19:29;99048.25;;;9.48;100.00
69667;BME280;66534;52.370;4.832;2023-04-01T01:24:49;99042.63;;;9.54;100.00
69667;BME280;66534;52.370;4.832;2023-04-01T01:27:17;99053.50;;;9.35;100.00
69667;BME280;66534;52.370;4.832;2023-04-01T01:27:54;99046.41;;;9.37;100.00
69667;BME280;66534;52.370;4.832;2023-04-01T01:30:35;99052.47;;;9.51;100.00
69667;BME280;66534;52.370;4.832;2023-04-01T01:31:24;99049.94;;;9.62;100.00
69667;BME280;66534;52.370;4.832;2023-04-01T01:32:12;99057.50;;;9.54;100.00
69667;BME280;66534;52.370;4.832;2023-04-01T01:33:00;99051.13;;;9.45;100.00
69667;BME280;66534;52.370;4.832;2023-04-01T01:33:47;99055.06;;;9.25;100.00
69667;BME280;66534;52.370;4.832;2023-04-01T01:35:26;99059.88;;;9.44;100.00
69667;BME280;66534;52.370;4.832;2023-04-01T01:36:04;99059.25;;;9.40;100.00
69667;BME280;66534;52.370;4.832;2023-04-01T01:36:41;99062.28;;;9.34;100.00
69667;BME280;66534;52.370;4.832;2023-04-01T01:37:19;99059.03;;;9.31;100.00
69667;BME280;66534;52.370;4.832;2023-04-01T01:37:54;99065.63;;;9.36;100.00
69667;BME280;66534;52.370;4.832;2023-04-01T01:38:30;99063.88;;;9.24;100.00
69667;BME280;66534;52.370;4.832;2023-04-01T01:39:03;99064.47;;;9.15;100.00
69667;BME280;66534;52.370;4.832;2023-04-01T01:39:37;99066.03;;;9.17;100.00
69667;BME280;66534;52.370;4.832;2023-04-01T01:40:11;99061.75;;;9.16;100.00
69667;BME280;66534;52.370;4.832;2023-04-01T01:40:46;99069.47;;;9.05;100.00
69667;BME280;66534;52.370;4.832;2023-04-01T01:41:21;99068.13;;;9.12;100.00
69667;BME280;66534;52.370;4.832;2023-04-01T01:41:57;99072.84;;;9.07;100.00
69667;BME280;66534;52.370;4.832;2023-04-01T01:42:31;99081.72;;;9.05;100.00
69667;BME280;66534;52.370;4.832;2023-04-01T01:43:06;99073.03;;;9.04;100.00
69667;BME280;66534;52.370;4.832;2023-04-01T01:43:40;99075.75;;;9.03;100.00
69667;BME280;66534;52.370;4.832;2023-04-01T01:44:14;99076.88;;;8.98;100.00
69667;BME280;66534;52.370;4.832;2023-04-01T01:44:46;99077.19;;;8.94;100.00
69667;BME280;66534;52.370;4.832;2023-04-01T01:45:21;99080.13;;;9.02;100.00
69667;BME280;66534;52.370;4.832;2023-04-01T01:45:55;99077.63;;;9.01;100.00
69667;BME280;66534;52.370;4.832;2023-04-01T01:46:29;99079.50;;;8.98;100.00
69667;BME280;66534;52.370;4.832;2023-04-01T01:47:01;99080.06;;;9.04;100.00
69667;BME280;66534;52.370;4.832;2023-04-01T01:47:31;99081.19;;;9.00;100.00
69667;BME280;66534;52.370;4.832;2023-04-01T01:48:05;99082.03;;;9.00;100.00
69667;BME280;66534;52.370;4.832;2023-04-01T01:48:39;99080.13;;;9.02;100.00
69667;BME280;66534;52.370;4.832;2023-04-01T01:49:12;99083.59;;;9.03;100.00
69667;BME280;66534;52.370;4.832;2023-04-01T01:49:45;99078.66;;;8.98;100.00
69667;BME280;66534;52.370;4.832;2023-04-01T01:50:15;99082.66;;;9.04;100.00
69667;BME280;66534;52.370;4.832;2023-04-01T01:50:47;99083.50;;;9.04;100.00
69667;BME280;66534;52.370;4.832;2023-04-01T01:51:19;99085.06;;;9.07;100.00
69667;BME280;66534;52.370;4.832;2023-04-01T01:51:51;99089.38;;;9.08;100.00
69667;BME280;66534;52.370;4.832;2023-04-01T01:52:22;99093.03;;;9.05;100.00
69667;BME280;66534;52.370;4.832;2023-04-01T01:53:04;99088.44;;;9.09;100.00
69667;BME280;66534;52.370;4.832;2023-04-01T01:53:39;99087.69;;;9.07;100.00
69667;BME280;66534;52.370;4.832;2023-04-01T01:54:13;99089.47;;;9.06;100.00
69667;BME280;66534;52.370;4.832;2023-04-01T01:54:51;99095.00;;;9.02;100.00
69667;BME280;66534;52.370;4.832;2023-04-01T01:55:24;99100.16;;;9.03;100.00
69667;BME280;66534;52.370;4.832;2023-04-01T01:55:58;99095.75;;;9.04;100.00
69667;BME280;66534;52.370;4.832;2023-04-01T01:56:29;99095.53;;;9.07;100.00
69667;BME280;66534;52.370;4.832;2023-04-01T01:57:04;99090.22;;;9.08;100.00
69667;BME280;66534;52.370;4.832;2023-04-01T01:57:38;99095.44;;;9.08;100.00
69667;BME280;66534;52.370;4.832;2023-04-01T01:58:12;99092.50;;;9.00;100.00
69667;BME280;66534;52.370;4.832;2023-04-01T01:58:58;99096.47;;;9.06;100.00
69667;BME280;66534;52.370;4.832;2023-04-01T01:59:33;99100.78;;;9.19;100.00
69667;BME280;66534;52.370;4.832;2023-04-01T02:00:08;99102.38;;;9.22;100.00
69667;BME280;66534;52.370;4.832;2023-04-01T02:00:44;99096.09;;;9.25;100.00
69667;BME280;66534;52.370;4.832;2023-04-01T02:01:21;99101.91;;;9.15;100.00
69667;BME280;66534;52.370;4.832;2023-04-01T02:01:56;99097.97;;;9.22;100.00
69667;BME280;66534;52.370;4.832;2023-04-01T02:02:27;99102.06;;;9.27;100.00
69667;BME280;66534;52.370;4.832;2023-04-01T02:03:01;99099.88;;;9.33;100.00
69667;BME280;66534;52.370;4.832;2023-04-01T02:03:33;99103.53;;;9.43;100.00
69667;BME280;66534;52.370;4.832;2023-04-01T02:04:07;99097.16;;;9.35;100.00
69667;BME280;66534;52.370;4.832;2023-04-01T02:04:40;99099.97;;;9.44;100.00
69667;BME280;66534;52.370;4.832;2023-04-01T02:05:15;99093.31;;;9.53;100.00
69667;BME280;66534;52.370;4.832;2023-04-01T02:05:50;99102.81;;;9.54;100.00
69667;BME280;66534;52.370;4.832;2023-04-01T02:06:23;99098.75;;;9.63;100.00
69667;BME280;66534;52.370;4.832;2023-04-01T02:07:07;99107.00;;;9.82;100.00
69667;BME280;66534;52.370;4.832;2023-04-01T02:07:45;99105.97;;;9.59;100.00
69667;BME280;66534;52.370;4.832;2023-04-01T02:08:36;99104.28;;;9.58;100.00
69667;BME280;66534;52.370;4.832;2023-04-01T02:09:12;99110.88;;;9.89;100.00
69667;BME280;66534;52.370;4.832;2023-04-01T02:09:43;99110.97;;;10.01;100.00
69667;BME280;66534;52.370;4.832;2023-04-01T02:10:14;99104.28;;;9.96;100.00
69667;BME280;66534;52.370;4.832;2023-04-01T02:10:47;99108.16;;;10.04;100.00
69667;BME280;66534;52.370;4.832;2023-04-01T02:11:28;99108.16;;;10.04;100.00
69667;BME280;66534;52.370;4.832;2023-04-01T02:12:08;99113.28;;;9.92;100.00
69667;BME280;66534;52.370;4.832;2023-04-01T02:12:43;99112.75;;;10.00;100.00
69667;BME280;66534;52.370;4.832;2023-04-01T02:13:19;99111.41;;;9.82;100.00
69667;BME280;66534;52.370;4.832;2023-04-01T02:14:10;99116.63;;;9.82;100.00
69667;BME280;66534;52.370;4.832;2023-04-01T02:14:50;99110.78;;;9.78;100.00
69667;BME280;66534;52.370;4.832;2023-04-01T02:15:28;99119.25;;;9.82;100.00
69667;BME280;66534;52.370;4.832;2023-04-01T02:16:05;99121.47;;;9.88;100.00
69667;BME280;66534;52.370;4.832;2023-04-01T02:17:23;99120.41;;;9.90;100.00
69667;BME280;66534;52.370;4.832;2023-04-01T02:17:56;99120.00;;;9.84;100.00
69667;BME280;66534;52.370;4.832;2023-04-01T02:18:28;99118.94;;;9.99;100.00
69667;BME280;66534;52.370;4.832;2023-04-01T02:18:59;99113.16;;;10.07;100.00
69667;BME280;66534;52.370;4.832;2023-04-01T02:20:45;99123.44;;;10.10;100.00
69667;BME280;66534;52.370;4.832;2023-04-01T02:21:16;99128.34;;;10.02;100.00
69667;BME280;66534;52.370;4.832;2023-04-01T02:21:50;99125.03;;;10.00;100.00
69667;BME280;66534;52.370;4.832;2023-04-01T02:22:26;99118.50;;;10.05;100.00
69667;BME280;66534;52.370;4.832;2023-04-01T02:22:59;99125.75;;;9.89;100.00
69667;BME280;66534;52.370;4.832;2023-04-01T02:23:32;99121.88;;;9.82;100.00
69667;BME280;66534;52.370;4.832;2023-04-01T02:24:06;99130.16;;;9.76;100.00
69667;BME280;66534;52.370;4.832;2023-04-01T02:24:40;99125.94;;;9.86;100.00
69667;BME280;66534;52.370;4.832;2023-04-01T02:25:13;99128.56;;;9.86;100.00
69667;BME280;66534;52.370;4.832;2023-04-01T02:25:46;99128.69;;;9.97;100.00
69667;BME280;66534;52.370;4.832;2023-04-01T02:26:17;99127.00;;;10.09;100.00
69667;BME280;66534;52.370;4.832;2023-04-01T02:26:52;99122.78;;;10.19;100.00
69667;BME280;66534;52.370;4.832;2023-04-01T02:27:22;99131.72;;;10.29;100.00
69667;BME280;66534;52.370;4.832;2023-04-01T02:27:53;99132.25;;;10.09;100.00
69667;BME280;66534;52.370;4.832;2023-04-01T02:28:26;99131.41;;;9.95;100.00
69667;BME280;66534;52.370;4.832;2023-04-01T02:28:58;99130.66;;;9.93;100.00
69667;BME280;66534;52.370;4.832;2023-04-01T02:29:31;99131.50;;;9.94;100.00
69667;BME280;66534;52.370;4.832;2023-04-01T02:30:02;99133.78;;;10.11;100.00
69667;BME280;66534;52.370;4.832;2023-04-01T02:30:34;99132.94;;;10.11;100.00
69667;BME280;66534;52.370;4.832;2023-04-01T02:31:08;99138.91;;;10.38;100.00
69667;BME280;66534;52.370;4.832;2023-04-01T02:31:40;99133.59;;;10.27;100.00
69667;BME280;66534;52.370;4.832;2023-04-01T02:32:12;99138.38;;;10.46;100.00
69667;BME280;66534;52.370;4.832;2023-04-01T02:32:44;99141.41;;;10.40;100.00
69667;BME280;66534;52.370;4.832;2023-04-01T02:33:16;99137.66;;;10.31;100.00
69667;BME280;66534;52.370;4.832;2023-04-01T02:33:49;99142.28;;;10.02;100.00
69667;BME280;66534;52.370;4.832;2023-04-01T02:34:20;99140.41;;;10.04;100.00
69667;BME280;66534;52.370;4.832;2023-04-01T02:34:52;99141.75;;;10.10;100.00
69667;BME280;66534;52.370;4.832;2023-04-01T02:35:23;99147.84;;;10.10;100.00
69667;BME280;66534;52.370;4.832;2023-04-01T02:35:55;99138.50;;;10.19;100.00
69667;BME280;66534;52.370;4.832;2023-04-01T02:36:25;99139.78;;;10.26;100.00
69667;BME280;66534;52.370;4.832;2023-04-01T02:36:56;99140.25;;;10.44;100.00
69667;BME280;66534;52.370;4.832;2023-04-01T02:37:27;99143.63;;;10.46;100.00
69667;BME280;66534;52.370;4.832;2023-04-01T02:37:57;99144.13;;;10.51;100.00
69667;BME280;66534;52.370;4.832;2023-04-01T02:38:28;99147.47;;;10.53;100.00
69667;BME280;66534;52.370;4.832;2023-04-01T02:38:59;99142.00;;;10.56;100.00
69667;BME280;66534;52.370;4.832;2023-04-01T02:39:32;99149.59;;;10.48;100.00
69667;BME280;66534;52.370;4.832;2023-04-01T02:40:06;99155.06;;;10.32;100.00
69667;BME280;66534;52.370;4.832;2023-04-01T02:40:48;99143.66;;;10.33;100.00
69667;BME280;66534;52.370;4.832;2023-04-01T02:41:21;99148.34;;;10.28;100.00
69667;BME280;66534;52.370;4.832;2023-04-01T02:41:51;99155.63;;;10.12;100.00
69667;BME280;66534;52.370;4.832;2023-04-01T02:42:22;99146.59;;;10.29;100.00
69667;BME280;66534;52.370;4.832;2023-04-01T02:42:53;99155.16;;;10.18;100.00
69667;BME280;66534;52.370;4.832;2023-04-01T02:43:23;99156.44;;;10.12;100.00
69667;BME280;66534;52.370;4.832;2023-04-01T02:43:54;99160.09;;;10.10;100.00
69667;BME280;66534;52.370;4.832;2023-04-01T02:44:25;99155.16;;;10.18;100.00
69667;BME280;66534;52.370;4.832;2023-04-01T02:44:55;99156.31;;;10.14;100.00
69667;BME280;66534;52.370;4.832;2023-04-01T02:45:25;99160.53;;;10.04;100.00
69667;BME280;66534;52.370;4.832;2023-04-01T02:45:56;99161.16;;;9.94;100.00
69667;BME280;66534;52.370;4.832;2023-04-01T02:46:26;99153.84;;;9.87;100.00
69667;BME280;66534;52.370;4.832;2023-04-01T02:46:57;99156.97;;;9.79;100.00
69667;BME280;66534;52.370;4.832;2023-04-01T02:47:27;99159.78;;;9.76;100.00
69667;BME280;66534;52.370;4.832;2023-04-01T02:47:57;99155.72;;;9.72;100.00
69667;BME280;66534;52.370;4.832;2023-04-01T02:48:28;99156.66;;;9.71;100.00
69667;BME280;66534;52.370;4.832;2023-04-01T02:48:59;99167.22;;;9.69;100.00
69667;BME280;66534;52.370;4.832;2023-04-01T02:49:29;99164.41;;;9.72;100.00
69667;BME280;66534;52.370;4.832;2023-04-01T02:50:00;99164.91;;;9.78;100.00
69667;BME280;66534;52.370;4.832;2023-04-01T02:50:30;99168.81;;;9.72;100.00
69667;BME280;66534;52.370;4.832;2023-04-01T02:51:01;99163.69;;;9.70;100.00
69667;BME280;66534;52.370;4.832;2023-04-01T02:51:32;99174.88;;;9.72;100.00
69667;BME280;66534;52.370;4.832;2023-04-01T02:52:03;99164.84;;;9.79;100.00
69667;BME280;66534;52.370;4.832;2023-04-01T02:52:33;99170.47;;;9.86;100.00
69667;BME280;66534;52.370;4.832;2023-04-01T02:53:04;99166.50;;;9.80;100.00
69667;BME280;66534;52.370;4.832;2023-04-01T02:53:36;99170.91;;;9.80;100.00
69667;BME280;66534;52.370;4.832;2023-04-01T02:54:06;99172.25;;;9.85;100.00
69667;BME280;66534;52.370;4.832;2023-04-01T02:54:36;99176.03;;;9.81;100.00
69667;BME280;66534;52.370;4.832;2023-04-01T02:55:07;99176.78;;;9.83;100.00
69667;BME280;66534;52.370;4.832;2023-04-01T02:55:38;99176.88;;;9.82;100.00
69667;BME280;66534;52.370;4.832;2023-04-01T02:56:08;99180.63;;;9.78;100.00
69667;BME280;66534;52.370;4.832;2023-04-01T02:56:38;99175.63;;;9.75;100.00
69667;BME280;66534;52.370;4.832;2023-04-01T02:57:09;99177.69;;;9.69;100.00
69667;BME280;66534;52.370;4.832;2023-04-01T02:57:40;99179.59;;;9.80;100.00
69667;BME280;66534;52.370;4.832;2023-04-01T02:58:10;99174.88;;;9.85;100.00
69667;BME280;66534;52.370;4.832;2023-04-01T02:58:41;99175.31;;;9.79;100.00
69667;BME280;66534;52.370;4.832;2023-04-01T02:59:11;99181.59;;;9.89;100.00
69667;BME280;66534;52.370;4.832;2023-04-01T02:59:42;99174.47;;;9.91;100.00
69667;BME280;66534;52.370;4.832;2023-04-01T03:00:12;99179.72;;;9.91;100.00
69667;BME280;66534;52.370;4.832;2023-04-01T03:00:43;99180.75;;;9.89;100.00
69667;BME280;66534;52.370;4.832;2023-04-01T03:01:14;99181.25;;;9.81;100.00
69667;BME280;66534;52.370;4.832;2023-04-01T03:01:44;99189.97;;;9.82;100.00
69667;BME280;66534;52.370;4.832;2023-04-01T03:02:15;99192.19;;;9.88;100.00
69667;BME280;66534;52.370;4.832;2023-04-01T03:02:46;99186.63;;;9.80;100.00
69667;BME280;66534;52.370;4.832;2023-04-01T03:03:17;99189.66;;;9.86;100.00
69667;BME280;66534;52.370;4.832;2023-04-01T03:03:47;99189.03;;;9.95;100.00
69667;BME280;66534;52.370;4.832;2023-04-01T03:04:17;99191.03;;;9.92;100.00
69667;BME280;66534;52.370;4.832;2023-04-01T03:04:48;99193.22;;;9.98;100.00
69667;BME280;66534;52.370;4.832;2023-04-01T03:05:18;99190.81;;;9.95;100.00
69667;BME280;66534;52.370;4.832;2023-04-01T03:05:49;99186.19;;;9.98;100.00
69667;BME280;66534;52.370;4.832;2023-04-01T03:06:20;99189.34;;;10.16;100.00
69667;BME280;66534;52.370;4.832;2023-04-01T03:06:50;99196.88;;;10.21;100.00
69667;BME280;66534;52.370;4.832;2023-04-01T03:07:21;99191.41;;;10.24;100.00
69667;BME280;66534;52.370;4.832;2023-04-01T03:07:51;99195.09;;;10.21;100.00
69667;BME280;66534;52.370;4.832;2023-04-01T03:08:22;99193.97;;;10.13;100.00
69667;BME280;66534;52.370;4.832;2023-04-01T03:08:52;99192.69;;;10.06;100.00
69667;BME280;66534;52.370;4.832;2023-04-01T03:09:22;99195.63;;;10.01;100.00
69667;BME280;66534;52.370;4.832;2023-04-01T03:09:53;99193.13;;;10.00;100.00
69667;BME280;66534;52.370;4.832;2023-04-01T03:10:23;99190.72;;;9.96;100.00
69667;BME280;66534;52.370;4.832;2023-04-01T03:10:54;99194.78;;;9.88;100.00
69667;BME280;66534;52.370;4.832;2023-04-01T03:11:24;99197.50;;;9.86;100.00
69667;BME280;66534;52.370;4.832;2023-04-01T03:11:56;99203.28;;;9.91;100.00
69667;BME280;66534;52.370;4.832;2023-04-01T03:12:26;99198.75;;;9.81;100.00